createdAt,value
2023-01-19T00:04:54.327Z,990.64
2023-01-19T00:09:54.118Z,990.65
2023-01-19T00:14:54.127Z,990.63
2023-01-19T00:19:53.998Z,990.67
2023-01-19T00:24:53.909Z,990.80
2023-01-19T00:29:53.873Z,990.80
2023-01-19T00:34:53.834Z,990.83
2023-01-19T00:39:53.749Z,990.90
2023-01-19T00:44:53.738Z,990.95
2023-01-19T00:49:53.594Z,990.93
2023-01-19T00:54:53.809Z,991.07
2023-01-19T00:59:53.485Z,991.04
2023-01-19T01:04:53.397Z,991.11
2023-01-19T01:09:53.356Z,991.10
2023-01-19T01:14:53.278Z,991.06
2023-01-19T01:19:53.237Z,991.16
2023-01-19T01:24:53.230Z,991.25
2023-01-19T01:29:53.137Z,991.28
2023-01-19T01:34:53.011Z,991.24
2023-01-19T01:39:53.011Z,991.29
2023-01-19T01:44:52.901Z,991.22
2023-01-19T01:49:52.813Z,991.34
2023-01-19T01:54:52.804Z,991.35
2023-01-19T01:59:52.701Z,991.43
2023-01-19T02:04:52.721Z,991.44
2023-01-19T02:09:52.564Z,991.47
2023-01-19T02:14:52.523Z,991.47
2023-01-19T02:19:53.228Z,991.48
2023-01-19T02:24:52.451Z,991.41
2023-01-19T02:29:52.339Z,991.53
2023-01-19T02:34:52.265Z,991.74
2023-01-19T02:39:52.252Z,991.74
2023-01-19T02:44:52.133Z,991.69
2023-01-19T02:49:52.079Z,991.79
2023-01-19T02:54:52.035Z,991.77
2023-01-19T02:59:51.941Z,991.74
2023-01-19T03:04:51.952Z,991.69
2023-01-19T03:09:51.832Z,991.76
2023-01-19T03:14:51.831Z,991.70
2023-01-19T03:19:51.680Z,991.80
2023-01-19T03:24:51.661Z,991.96
2023-01-19T03:29:51.581Z,992.11
2023-01-19T03:34:51.522Z,992.09
2023-01-19T03:39:51.457Z,992.11
2023-01-19T03:44:51.438Z,992.14
2023-01-19T03:49:51.295Z,992.18
2023-01-19T03:54:51.259Z,992.10
2023-01-19T03:59:51.164Z,992.07
2023-01-19T04:04:51.160Z,992.14
2023-01-19T04:09:51.088Z,992.16
2023-01-19T04:14:51.026Z,992.26
2023-01-19T04:19:50.894Z,992.26
2023-01-19T04:24:50.886Z,992.11
2023-01-19T04:29:50.801Z,992.11
2023-01-19T04:34:50.712Z,992.06
2023-01-19T04:39:50.702Z,992.13
2023-01-19T04:44:50.605Z,992.08
2023-01-19T04:49:50.509Z,992.18
2023-01-19T04:54:50.481Z,992.24
2023-01-19T04:59:50.380Z,992.13
2023-01-19T05:04:50.357Z,992.10
2023-01-19T05:09:50.254Z,992.11
2023-01-19T05:14:50.509Z,992.09
2023-01-19T05:19:50.153Z,992.08
2023-01-19T05:24:50.065Z,992.11
2023-01-19T05:29:49.991Z,992.05
2023-01-19T05:34:49.993Z,992.07
2023-01-19T05:39:49.869Z,992.20
2023-01-19T05:44:49.884Z,992.14
2023-01-19T05:49:49.757Z,992.09
2023-01-19T05:54:49.692Z,992.14
2023-01-19T05:59:49.652Z,992.17
2023-01-19T06:04:49.588Z,992.25
2023-01-19T06:09:49.515Z,992.24
2023-01-19T06:14:49.447Z,992.24
2023-01-19T06:19:49.376Z,992.29
2023-01-19T06:24:49.350Z,992.37
2023-01-19T06:29:50.166Z,992.53
2023-01-19T06:34:49.182Z,992.58
2023-01-19T06:39:49.140Z,992.65
2023-01-19T06:44:49.056Z,992.72
2023-01-19T06:49:49.022Z,992.80
2023-01-19T06:54:48.928Z,992.87
2023-01-19T06:59:48.902Z,992.89
2023-01-19T07:04:49.147Z,992.95
2023-01-19T07:09:48.736Z,992.88
2023-01-19T07:14:48.712Z,992.95
2023-01-19T07:19:48.593Z,992.96
2023-01-19T07:24:48.524Z,993.04
2023-01-19T07:29:48.499Z,993.00
2023-01-19T07:34:48.419Z,993.06
2023-01-19T07:39:48.372Z,993.06
2023-01-19T07:44:48.290Z,993.01
2023-01-19T07:49:48.210Z,993.11
2023-01-19T07:54:48.188Z,993.02
2023-01-19T07:59:48.068Z,992.97
2023-01-19T08:04:48.115Z,993.04
2023-01-19T08:09:47.943Z,993.01
2023-01-19T08:14:47.876Z,993.16
2023-01-19T08:19:47.851Z,993.20
2023-01-19T08:24:50.374Z,993.22
2023-01-19T08:29:47.722Z,993.25
2023-01-19T08:34:47.655Z,993.25
2023-01-19T08:39:47.646Z,993.26
2023-01-19T08:44:57.475Z,993.32
2023-01-19T08:49:48.439Z,993.33
2023-01-19T08:54:47.468Z,993.31
2023-01-19T08:59:47.363Z,993.30
2023-01-19T09:04:47.243Z,993.35
2023-01-19T09:09:47.208Z,993.30
2023-01-19T09:14:47.093Z,993.29
2023-01-19T09:19:47.035Z,993.28
2023-01-19T09:24:46.951Z,993.33
2023-01-19T09:29:46.918Z,993.38
2023-01-19T09:34:46.886Z,993.35
2023-01-19T09:39:46.860Z,993.26
2023-01-19T09:44:46.817Z,993.19
2023-01-19T09:49:46.719Z,993.24
2023-01-19T09:54:46.611Z,993.21
2023-01-19T09:59:46.587Z,993.25
2023-01-19T10:04:46.540Z,993.22
2023-01-19T10:09:46.395Z,993.17
2023-01-19T10:14:46.421Z,993.12
2023-01-19T10:19:46.807Z,993.19
2023-01-19T10:24:46.227Z,993.19
2023-01-19T10:29:46.105Z,993.18
2023-01-19T10:34:46.094Z,993.03
2023-01-19T10:39:45.962Z,992.99
2023-01-19T10:44:46.006Z,993.09
2023-01-19T10:49:45.904Z,993.11
2023-01-19T10:54:45.768Z,992.91
2023-01-19T10:59:45.703Z,992.96
2023-01-19T11:04:46.843Z,992.94
2023-01-19T11:09:45.591Z,992.98
2023-01-19T11:14:45.620Z,992.95
2023-01-19T11:19:45.450Z,992.87
2023-01-19T11:24:45.522Z,992.97
2023-01-19T11:29:45.358Z,992.90
2023-01-19T11:34:45.272Z,992.98
2023-01-19T11:39:45.204Z,993.04
2023-01-19T11:44:45.116Z,993.09
2023-01-19T11:49:45.047Z,992.95
2023-01-19T11:54:45.014Z,992.78
2023-01-19T11:59:44.984Z,992.86
2023-01-19T12:04:45.043Z,992.94
2023-01-19T12:09:44.796Z,992.95
2023-01-19T12:14:44.739Z,992.94
2023-01-19T12:19:44.684Z,992.85
2023-01-19T12:24:44.631Z,992.77
2023-01-19T12:29:44.671Z,992.91
2023-01-19T12:34:44.475Z,992.92
2023-01-19T12:39:44.414Z,992.84
2023-01-19T12:44:44.322Z,992.80
2023-01-19T12:49:44.347Z,992.78
2023-01-19T12:54:45.531Z,992.77
2023-01-19T12:59:44.222Z,992.77
2023-01-19T13:04:44.081Z,992.73
2023-01-19T13:09:44.037Z,992.77
2023-01-19T13:14:43.963Z,992.62
2023-01-19T13:19:43.903Z,992.63
2023-01-19T13:24:43.822Z,992.61
2023-01-19T13:29:44.007Z,992.56
2023-01-19T13:34:43.704Z,992.55
2023-01-19T13:39:43.650Z,992.55
2023-01-19T13:44:43.579Z,992.61
2023-01-19T13:49:43.638Z,992.60
2023-01-19T13:54:43.414Z,992.67
2023-01-19T13:59:43.435Z,992.73
2023-01-19T14:04:43.305Z,992.75
2023-01-19T14:09:43.247Z,992.68
2023-01-19T14:14:43.273Z,992.76
2023-01-19T14:19:43.141Z,992.77
2023-01-19T14:24:43.115Z,992.90
2023-01-19T14:29:43.011Z,992.86
2023-01-19T14:34:42.937Z,992.90
2023-01-19T14:39:42.887Z,992.88
2023-01-19T14:44:42.810Z,992.81
2023-01-19T14:49:43.043Z,992.87
2023-01-19T14:54:42.690Z,992.77
2023-01-19T14:59:42.611Z,992.85
2023-01-19T15:04:42.556Z,993.00
2023-01-19T15:09:42.713Z,993.05
2023-01-19T15:14:42.445Z,993.05
2023-01-19T15:19:42.331Z,993.13
2023-01-19T15:24:42.249Z,993.15
2023-01-19T15:29:42.239Z,993.15
2023-01-19T15:34:42.132Z,993.24
2023-01-19T15:39:42.076Z,993.38
2023-01-19T15:44:42.011Z,993.42
2023-01-19T15:49:41.990Z,993.39
2023-01-19T15:54:41.835Z,993.36
2023-01-19T15:59:41.849Z,993.45
2023-01-19T16:04:41.729Z,993.43
2023-01-19T16:09:41.671Z,993.47
2023-01-19T16:14:41.666Z,993.54
2023-01-19T16:19:41.578Z,993.59
2023-01-19T16:24:41.453Z,993.69
2023-01-19T16:29:42.161Z,993.69
2023-01-19T16:34:41.339Z,993.73
2023-01-19T16:39:41.280Z,993.74
2023-01-19T16:44:41.169Z,993.83
2023-01-19T16:49:41.157Z,993.82
2023-01-19T16:54:41.104Z,993.89
2023-01-19T16:59:41.057Z,993.95
2023-01-19T17:04:41.025Z,993.93
2023-01-19T17:09:40.889Z,993.95
2023-01-19T17:14:40.810Z,993.99
2023-01-19T17:19:40.833Z,994.04
2023-01-19T17:24:41.983Z,994.02
2023-01-19T17:29:40.620Z,994.05
2023-01-19T17:34:40.753Z,994.07
2023-01-19T17:39:40.517Z,994.12
2023-01-19T17:44:40.551Z,994.21
2023-01-19T17:49:40.363Z,994.14
2023-01-19T17:54:40.323Z,994.26
2023-01-19T17:59:40.505Z,994.23
2023-01-19T18:04:40.204Z,994.22
2023-01-19T18:09:40.166Z,994.22
2023-01-19T18:14:40.090Z,994.28
2023-01-19T18:19:39.961Z,994.25
2023-01-19T18:24:39.950Z,994.17
2023-01-19T18:29:40.150Z,994.28
2023-01-19T18:34:39.788Z,994.28
2023-01-19T18:39:39.708Z,994.53
2023-01-19T18:44:39.655Z,994.44
2023-01-19T18:49:39.929Z,994.73
2023-01-19T18:54:39.512Z,994.58
2023-01-19T18:59:39.450Z,994.53
2023-01-19T19:04:39.419Z,994.45
2023-01-19T19:09:39.380Z,994.50
2023-01-19T19:14:39.301Z,994.54
2023-01-19T19:19:39.247Z,994.65
2023-01-19T19:24:39.159Z,994.67
2023-01-19T19:29:39.134Z,994.71
2023-01-19T19:34:38.993Z,994.63
2023-01-19T19:39:39.006Z,994.80
2023-01-19T19:44:38.932Z,994.78
2023-01-19T19:49:39.019Z,994.81
2023-01-19T19:54:38.821Z,994.83
2023-01-19T19:59:38.704Z,994.92
2023-01-19T20:04:38.667Z,995.03
2023-01-19T20:09:38.572Z,994.99
2023-01-19T20:14:38.551Z,994.96
2023-01-19T20:19:38.451Z,995.07
2023-01-19T20:24:38.484Z,995.03
2023-01-19T20:29:38.351Z,995.05
2023-01-19T20:34:39.236Z,995.09
2023-01-19T20:39:39.115Z,995.18
2023-01-19T20:44:38.139Z,995.13
2023-01-19T20:49:38.076Z,995.14
2023-01-19T20:54:37.979Z,995.25
2023-01-19T20:59:37.883Z,995.23
2023-01-19T21:04:37.856Z,995.23
2023-01-19T21:09:37.897Z,995.23
2023-01-19T21:14:37.842Z,995.32
2023-01-19T21:19:37.684Z,995.49
2023-01-19T21:24:37.629Z,995.51
2023-01-19T21:29:38.250Z,995.64
2023-01-19T21:34:37.535Z,995.57
2023-01-19T21:39:37.717Z,995.57
2023-01-19T21:44:37.532Z,995.60
2023-01-19T21:49:41.955Z,995.61
2023-01-19T21:54:37.193Z,995.73
2023-01-19T21:59:37.155Z,995.76
2023-01-19T22:04:37.059Z,995.69
2023-01-19T22:09:37.168Z,995.80
2023-01-19T22:14:36.923Z,995.89
2023-01-19T22:19:36.907Z,995.88
2023-01-19T22:24:36.807Z,995.94
2023-01-19T22:29:36.731Z,996.01
2023-01-19T22:34:36.643Z,996.00
2023-01-19T22:39:36.624Z,996.04
2023-01-19T22:44:36.707Z,996.07
2023-01-19T22:49:36.449Z,995.92
2023-01-19T22:54:36.374Z,995.97
2023-01-19T22:59:36.341Z,996.05
2023-01-19T23:04:36.330Z,995.85
2023-01-19T23:09:36.196Z,995.93
2023-01-19T23:14:36.191Z,995.94
2023-01-19T23:19:36.088Z,995.95
2023-01-19T23:24:36.050Z,995.94
2023-01-19T23:29:36.001Z,995.99
2023-01-19T23:34:36.029Z,995.92
2023-01-19T23:39:35.867Z,995.92
2023-01-19T23:44:35.859Z,995.91
2023-01-19T23:49:37.501Z,995.85
2023-01-19T23:54:35.613Z,995.88
2023-01-19T23:59:36.096Z,995.88
